Time;durP1;ratioP1;P1;durP2;ratioP2;P2;SDS_P1;SDS_P2;PMS_P1;PMS_P2;Temp;Humidity;BMP_temperature;BMP_pressure;BME280_temperature;BME280_humidity;BME280_pressure;Samples;Min_cycle;Max_cycle;Signal;HPM_P1;HPM_P2
2023/05/13 00:00:08;;;;;;;0.90;0.90;;;14.20;99.90;;;;;;5065810;28;20617;-63
2023/05/13 00:02:34;;;;;;;0.90;0.90;;;14.10;99.90;;;;;;5072071;28;20223;-64
2023/05/13 00:05:01;;;;;;;1.10;1.00;;;14.10;99.90;;;;;;5072586;28;20592;-63
2023/05/13 00:07:28;;;;;;;0.90;0.90;;;14.00;99.90;;;;;;5072394;28;20587;-64
2023/05/13 00:09:55;;;;;;;0.80;0.80;;;14.00;99.90;;;;;;5071409;28;20203;-63
2023/05/13 00:12:23;;;;;;;0.90;0.90;;;14.00;99.90;;;;;;5071799;28;20223;-63
2023/05/13 00:14:50;;;;;;;1.00;0.90;;;14.10;99.90;;;;;;5071150;28;20203;-64
2023/05/13 00:17:18;;;;;;;0.80;0.80;;;14.10;99.90;;;;;;5072122;28;20225;-63
2023/05/13 00:19:44;;;;;;;1.00;1.00;;;14.20;99.90;;;;;;5071141;28;20696;-63
2023/05/13 00:22:11;;;;;;;0.80;0.80;;;14.20;99.90;;;;;;5071832;28;20231;-63
2023/05/13 00:24:38;;;;;;;0.90;0.90;;;14.20;99.90;;;;;;5071769;28;20281;-63
2023/05/13 00:27:05;;;;;;;1.00;1.00;;;14.20;99.90;;;;;;5072598;28;20749;-63
2023/05/13 00:29:33;;;;;;;1.03;1.03;;;14.00;99.90;;;;;;5070056;28;20204;-63
2023/05/13 00:32:00;;;;;;;1.10;1.10;;;14.00;99.90;;;;;;5052090;28;20227;-63
2023/05/13 00:34:27;;;;;;;1.00;1.00;;;14.00;99.90;;;;;;5053516;28;20196;-63
2023/05/13 00:36:54;;;;;;;1.00;1.00;;;14.00;99.90;;;;;;5051819;28;20207;-62
2023/05/13 00:39:21;;;;;;;1.00;1.00;;;14.00;99.90;;;;;;5051353;28;20210;-62
2023/05/13 00:41:48;;;;;;;1.13;1.10;;;14.00;99.90;;;;;;5052093;28;20257;-63
2023/05/13 00:44:15;;;;;;;0.90;0.90;;;14.00;99.90;;;;;;5052171;28;20215;-64
2023/05/13 00:46:44;;;;;;;0.90;0.90;;;13.90;99.90;;;;;;5052418;28;20207;-64
2023/05/13 00:49:11;;;;;;;1.07;1.07;;;13.90;99.90;;;;;;5051561;28;20204;-62
2023/05/13 00:51:37;;;;;;;0.90;0.90;;;13.90;99.90;;;;;;5052126;28;20228;-62
2023/05/13 00:54:04;;;;;;;0.90;0.90;;;13.80;99.90;;;;;;5052131;28;20204;-63
2023/05/13 00:56:31;;;;;;;1.07;1.07;;;13.70;99.90;;;;;;5053572;28;20208;-63
2023/05/13 00:58:58;;;;;;;0.90;0.90;;;13.70;99.90;;;;;;5053169;28;20208;-68
2023/05/13 01:01:34;;;;;;;0.90;0.90;;;13.80;99.90;;;;;;5051169;28;20294;-62
2023/05/13 01:04:14;;;;;;;0.97;0.97;;;13.80;99.90;;;;;;5051777;28;20724;-64
2023/05/13 01:06:49;;;;;;;0.90;0.90;;;13.80;99.90;;;;;;5051655;28;20700;-63
2023/05/13 01:09:26;;;;;;;0.97;0.97;;;13.70;99.90;;;;;;5050522;28;20211;-63
2023/05/13 01:11:55;;;;;;;1.10;1.10;;;13.70;99.90;;;;;;5051278;28;20227;-63
2023/05/13 01:14:27;;;;;;;1.10;1.10;;;13.60;99.90;;;;;;5059524;28;20214;-62
2023/05/13 01:17:01;;;;;;;0.80;0.80;;;13.60;99.90;;;;;;5063773;28;20199;-62
2023/05/13 01:19:39;;;;;;;0.90;0.90;;;13.60;99.90;;;;;;5070391;28;20698;-63
2023/05/13 01:22:07;;;;;;;0.90;0.90;;;13.70;99.90;;;;;;5071223;28;20230;-63
2023/05/13 01:24:34;;;;;;;1.00;1.00;;;13.70;99.90;;;;;;5070908;28;20711;-63
2023/05/13 01:27:01;;;;;;;0.80;0.80;;;13.60;99.90;;;;;;5071148;28;20211;-62
2023/05/13 01:29:28;;;;;;;0.95;0.95;;;13.60;99.90;;;;;;5070295;28;20203;-63
2023/05/13 01:31:57;;;;;;;1.10;1.10;;;13.60;99.90;;;;;;5071041;28;20595;-63
2023/05/13 01:34:25;;;;;;;1.00;1.00;;;13.60;99.90;;;;;;5070590;28;20207;-63
2023/05/13 01:36:52;;;;;;;0.70;0.70;;;13.50;99.90;;;;;;5071104;28;20218;-63
2023/05/13 01:39:20;;;;;;;0.80;0.80;;;13.50;99.90;;;;;;5070190;28;20242;-63
2023/05/13 01:41:47;;;;;;;0.77;0.77;;;13.50;99.90;;;;;;5065656;28;20227;-64
2023/05/13 01:44:14;;;;;;;0.80;0.80;;;13.50;99.90;;;;;;5070852;28;20223;-63
2023/05/13 01:46:43;;;;;;;0.90;0.90;;;13.60;99.90;;;;;;5070779;28;20269;-63
2023/05/13 01:49:10;;;;;;;0.77;0.77;;;13.50;99.90;;;;;;5070315;28;20297;-62
2023/05/13 01:51:37;;;;;;;0.70;0.70;;;13.50;99.90;;;;;;5070784;28;20223;-62
2023/05/13 01:54:04;;;;;;;0.70;0.70;;;13.60;99.90;;;;;;5071135;28;20202;-64
2023/05/13 01:56:32;;;;;;;0.67;0.67;;;13.50;99.90;;;;;;5072043;28;20234;-65
2023/05/13 01:58:59;;;;;;;0.70;0.70;;;13.60;99.90;;;;;;5085984;28;20210;-64
2023/05/13 02:01:26;;;;;;;0.90;0.90;;;13.60;99.90;;;;;;5076840;28;20218;-63
2023/05/13 02:03:53;;;;;;;0.80;0.80;;;13.50;99.90;;;;;;5071794;28;20203;-63
2023/05/13 02:06:20;;;;;;;1.00;1.00;;;13.50;99.90;;;;;;5072008;28;20199;-64
2023/05/13 02:08:47;;;;;;;0.93;0.88;;;13.50;99.90;;;;;;5071838;28;20204;-65
2023/05/13 02:11:13;;;;;;;0.80;0.80;;;13.40;99.90;;;;;;5072433;28;20662;-64
2023/05/13 02:13:42;;;;;;;0.60;0.60;;;13.50;99.90;;;;;;5075407;28;20695;-63
2023/05/13 02:16:10;;;;;;;0.90;0.90;;;13.40;99.90;;;;;;5077066;28;20203;-63
2023/05/13 02:18:37;;;;;;;0.83;0.83;;;13.30;99.90;;;;;;5076147;28;20211;-64
2023/05/13 02:21:04;;;;;;;0.90;0.90;;;13.30;99.90;;;;;;5075140;28;20213;-64
2023/05/13 02:23:30;;;;;;;0.80;0.80;;;13.20;99.90;;;;;;5074938;28;20637;-64
2023/05/13 02:25:57;;;;;;;0.90;0.90;;;13.20;99.90;;;;;;5075176;28;20223;-64
2023/05/13 02:28:24;;;;;;;0.90;0.90;;;13.30;99.90;;;;;;5074892;28;20211;-63
2023/05/13 02:30:52;;;;;;;0.90;0.90;;;13.40;99.90;;;;;;5074761;28;20203;-62
2023/05/13 02:33:19;;;;;;;0.90;0.90;;;13.30;99.90;;;;;;5074523;28;20227;-65
2023/05/13 02:35:46;;;;;;;0.80;0.80;;;13.20;99.90;;;;;;5074792;28;20577;-63
2023/05/13 02:38:13;;;;;;;0.80;0.80;;;13.10;99.90;;;;;;5075103;28;20207;-63
2023/05/13 02:40:40;;;;;;;0.80;0.80;;;13.10;99.90;;;;;;5074484;28;20209;-63
2023/05/13 02:43:06;;;;;;;1.55;0.82;;;12.90;99.90;;;;;;5077263;28;20227;-63
2023/05/13 02:45:33;;;;;;;0.77;0.77;;;12.90;99.90;;;;;;5078084;28;20589;-66
2023/05/13 02:48:02;;;;;;;0.83;0.83;;;12.80;99.90;;;;;;5075212;28;20215;-63
2023/05/13 02:50:28;;;;;;;0.80;0.80;;;12.80;99.90;;;;;;5074855;28;20637;-62
2023/05/13 02:52:55;;;;;;;0.70;0.70;;;12.70;99.90;;;;;;5075485;28;20238;-67
2023/05/13 02:55:22;;;;;;;0.80;0.80;;;12.70;99.90;;;;;;5074899;28;20196;-63
2023/05/13 02:57:49;;;;;;;1.30;0.83;;;12.70;99.90;;;;;;5074113;28;20207;-64
2023/05/13 03:00:16;;;;;;;0.80;0.80;;;12.80;99.90;;;;;;5074091;28;20207;-63
2023/05/13 03:02:43;;;;;;;0.83;0.83;;;12.80;99.90;;;;;;5074250;28;20253;-63
2023/05/13 03:05:11;;;;;;;1.10;1.10;;;12.60;99.90;;;;;;5074169;28;20233;-62
2023/05/13 03:07:38;;;;;;;0.80;0.80;;;12.60;99.90;;;;;;5077064;28;20665;-62
2023/05/13 03:10:06;;;;;;;0.80;0.80;;;12.50;99.90;;;;;;5075613;28;20218;-62
2023/05/13 03:12:33;;;;;;;0.70;0.70;;;12.50;99.90;;;;;;5075295;28;20314;-63
2023/05/13 03:14:59;;;;;;;0.80;0.80;;;12.50;99.90;;;;;;5074133;28;20188;-62
2023/05/13 03:17:29;;;;;;;0.70;0.63;;;12.50;99.90;;;;;;5073387;28;20207;-66
2023/05/13 03:19:56;;;;;;;0.82;0.82;;;12.50;99.90;;;;;;5073413;28;20711;-64
2023/05/13 03:22:24;;;;;;;1.10;0.70;;;12.50;99.90;;;;;;5074145;28;20227;-63
2023/05/13 03:24:51;;;;;;;0.90;0.90;;;12.50;99.90;;;;;;5073266;28;20215;-63
2023/05/13 03:27:19;;;;;;;0.60;0.60;;;12.60;99.90;;;;;;5073866;28;20211;-63
2023/05/13 03:29:46;;;;;;;0.70;0.70;;;12.60;99.90;;;;;;5073238;28;20314;-63
2023/05/13 03:32:13;;;;;;;0.67;0.67;;;12.70;99.90;;;;;;5073295;28;20227;-63
2023/05/13 03:34:40;;;;;;;0.70;0.70;;;12.80;99.90;;;;;;5073541;28;20210;-63
2023/05/13 03:37:07;;;;;;;0.70;0.70;;;12.80;99.90;;;;;;5073318;28;20227;-63
2023/05/13 03:39:36;;;;;;;0.70;0.70;;;12.70;99.90;;;;;;5073239;28;20243;-63
2023/05/13 03:42:03;;;;;;;0.90;0.90;;;12.70;99.90;;;;;;5073486;28;20219;-63
2023/05/13 03:44:30;;;;;;;0.70;0.70;;;12.70;99.90;;;;;;5073201;28;20674;-65
2023/05/13 03:46:56;;;;;;;0.52;0.52;;;12.70;99.90;;;;;;5072873;28;20682;-65
2023/05/13 03:49:23;;;;;;;0.73;0.73;;;12.70;99.90;;;;;;5073219;28;20203;-63
2023/05/13 03:51:50;;;;;;;1.15;1.00;;;12.60;99.90;;;;;;5073204;28;20227;-63
2023/05/13 03:54:17;;;;;;;0.63;0.63;;;12.60;99.90;;;;;;5073725;28;20207;-63
2023/05/13 03:56:45;;;;;;;0.65;0.65;;;12.60;99.90;;;;;;5072958;28;20209;-63
2023/05/13 03:59:11;;;;;;;0.63;0.63;;;12.60;99.90;;;;;;5072803;28;20290;-62
2023/05/13 04:01:39;;;;;;;0.77;0.77;;;12.50;99.90;;;;;;5073037;28;20230;-63
2023/05/13 04:04:06;;;;;;;0.70;0.70;;;12.60;99.90;;;;;;5073116;28;20207;-63
2023/05/13 04:06:33;;;;;;;2.00;0.60;;;12.60;99.90;;;;;;5073244;28;20227;-63
2023/05/13 04:09:00;;;;;;;0.80;0.80;;;12.60;99.90;;;;;;5076213;28;20713;-63
2023/05/13 04:11:26;;;;;;;0.77;0.70;;;12.60;99.90;;;;;;5076321;28;20220;-63
2023/05/13 04:13:55;;;;;;;0.70;0.70;;;12.60;99.90;;;;;;5072723;28;20756;-63
2023/05/13 04:16:21;;;;;;;0.80;0.80;;;12.70;99.90;;;;;;5073008;28;20207;-63
2023/05/13 04:18:48;;;;;;;0.60;0.60;;;12.70;99.90;;;;;;5072704;28;20203;-63
2023/05/13 04:21:15;;;;;;;0.80;0.70;;;12.60;99.90;;;;;;5072459;28;20205;-63
2023/05/13 04:23:42;;;;;;;0.60;0.60;;;12.60;99.90;;;;;;5073013;28;20226;-63
2023/05/13 04:26:08;;;;;;;0.93;0.70;;;12.60;99.90;;;;;;5073044;28;20230;-63
2023/05/13 04:28:35;;;;;;;0.70;0.70;;;12.60;99.90;;;;;;5072863;28;20203;-63
2023/05/13 04:31:03;;;;;;;1.25;0.70;;;12.60;99.90;;;;;;5076914;28;20217;-64
2023/05/13 04:33:30;;;;;;;0.60;0.60;;;12.60;99.90;;;;;;5074647;28;20305;-64
2023/05/13 04:35:57;;;;;;;0.75;0.60;;;12.60;99.90;;;;;;5072210;28;20214;-64
2023/05/13 04:38:24;;;;;;;0.50;0.50;;;12.70;99.90;;;;;;5072719;28;20741;-64
2023/05/13 04:40:52;;;;;;;0.73;0.73;;;12.70;99.90;;;;;;5072569;28;20548;-63
2023/05/13 04:43:18;;;;;;;0.70;0.70;;;12.80;99.90;;;;;;5072490;28;20227;-65
2023/05/13 04:45:47;;;;;;;0.80;0.80;;;12.80;99.90;;;;;;5072063;28;20581;-62
2023/05/13 04:48:15;;;;;;;0.80;0.80;;;12.80;99.90;;;;;;5072055;28;20207;-64
2023/05/13 04:50:46;;;;;;;0.63;0.63;;;12.80;99.90;;;;;;5072367;28;20733;-63
2023/05/13 04:53:13;;;;;;;0.70;0.70;;;12.90;99.90;;;;;;5072080;28;20231;-64
2023/05/13 04:55:40;;;;;;;0.88;0.88;;;12.90;99.90;;;;;;5076810;28;20285;-63
2023/05/13 04:58:06;;;;;;;1.10;0.97;;;12.90;99.90;;;;;;5072642;28;20203;-63
2023/05/13 05:00:33;;;;;;;0.80;0.80;;;12.80;99.90;;;;;;5072167;28;20589;-63
2023/05/13 05:03:00;;;;;;;0.70;0.70;;;12.90;99.90;;;;;;5071869;28;20226;-63
2023/05/13 05:05:28;;;;;;;0.82;0.82;;;12.90;99.90;;;;;;5072012;28;20623;-63
2023/05/13 05:07:55;;;;;;;0.90;0.90;;;12.90;99.90;;;;;;5071728;28;20219;-70
2023/05/13 05:10:22;;;;;;;0.80;0.80;;;12.80;99.90;;;;;;5071991;28;20209;-64
2023/05/13 05:12:49;;;;;;;0.90;0.90;;;12.90;99.90;;;;;;5072210;28;20255;-64
2023/05/13 05:15:15;;;;;;;0.87;0.87;;;13.10;99.90;;;;;;5072397;28;20211;-63
2023/05/13 05:17:42;;;;;;;0.80;0.80;;;13.40;99.90;;;;;;5071648;28;20207;-64
2023/05/13 05:20:10;;;;;;;0.70;0.70;;;13.70;99.90;;;;;;5071458;28;20221;-64
2023/05/13 05:22:40;;;;;;;0.80;0.80;;;13.90;99.90;;;;;;5071512;28;20880;-63
2023/05/13 05:25:08;;;;;;;0.90;0.90;;;13.90;99.90;;;;;;5071760;28;20298;-64
2023/05/13 05:27:35;;;;;;;0.90;0.90;;;14.00;99.90;;;;;;5072102;28;20206;-65
2023/05/13 05:30:02;;;;;;;0.70;0.70;;;14.20;99.90;;;;;;5072021;28;20234;-64
2023/05/13 05:32:28;;;;;;;0.70;0.70;;;14.40;99.90;;;;;;5071437;28;20753;-65
2023/05/13 05:34:55;;;;;;;0.80;0.80;;;14.50;99.90;;;;;;5072042;28;20206;-64
2023/05/13 05:37:22;;;;;;;0.83;0.83;;;14.50;99.90;;;;;;5071728;28;20203;-63
2023/05/13 05:39:50;;;;;;;0.70;0.70;;;14.50;99.90;;;;;;5071761;28;20214;-63
2023/05/13 05:42:17;;;;;;;0.70;0.70;;;14.50;99.90;;;;;;5071356;28;20219;-63
2023/05/13 05:44:44;;;;;;;0.95;0.95;;;14.40;99.90;;;;;;5063844;28;20204;-63
2023/05/13 05:47:11;;;;;;;0.80;0.80;;;14.30;99.90;;;;;;5073348;28;20233;-63
2023/05/13 05:49:38;;;;;;;0.70;0.70;;;14.30;99.90;;;;;;5075260;28;20665;-65
2023/05/13 05:52:05;;;;;;;0.70;0.70;;;14.30;99.90;;;;;;5075314;28;20310;-64
2023/05/13 05:54:32;;;;;;;0.73;0.73;;;14.30;99.90;;;;;;5075767;28;20565;-65
2023/05/13 05:57:00;;;;;;;1.00;1.00;;;14.50;99.90;;;;;;5075201;28;20222;-64
2023/05/13 05:59:27;;;;;;;0.90;0.90;;;14.50;99.90;;;;;;5075113;28;20230;-63
2023/05/13 06:01:54;;;;;;;0.90;0.90;;;14.60;99.90;;;;;;5075170;28;20223;-63
2023/05/13 06:04:21;;;;;;;0.60;0.60;;;14.60;99.90;;;;;;5075456;28;20693;-64
2023/05/13 06:06:47;;;;;;;0.63;0.63;;;14.70;99.90;;;;;;5075364;28;20225;-63
2023/05/13 06:09:14;;;;;;;0.70;0.70;;;14.80;99.90;;;;;;5075080;28;20199;-63
2023/05/13 06:11:41;;;;;;;0.90;0.90;;;14.90;99.90;;;;;;5075152;28;20227;-63
2023/05/13 06:14:09;;;;;;;0.90;0.90;;;14.90;99.90;;;;;;5074884;28;20211;-63
2023/05/13 06:16:36;;;;;;;1.00;1.00;;;14.90;99.90;;;;;;5075308;28;20677;-63
2023/05/13 06:19:03;;;;;;;1.00;1.00;;;14.70;99.90;;;;;;5078310;28;20203;-63
2023/05/13 06:21:30;;;;;;;0.90;0.90;;;14.70;99.90;;;;;;5077157;28;20214;-63
2023/05/13 06:23:57;;;;;;;1.10;1.10;;;14.70;99.90;;;;;;5076661;28;20211;-63
2023/05/13 06:26:24;;;;;;;0.98;0.98;;;14.60;99.90;;;;;;5074933;28;20258;-63
2023/05/13 06:28:51;;;;;;;1.00;1.00;;;14.70;99.90;;;;;;5074698;28;20203;-62
2023/05/13 06:31:19;;;;;;;1.48;1.10;;;14.60;99.90;;;;;;5074675;28;20195;-64
2023/05/13 06:33:46;;;;;;;1.02;1.00;;;14.60;99.90;;;;;;5074734;28;20678;-64
2023/05/13 06:36:13;;;;;;;1.07;1.07;;;14.70;99.90;;;;;;5074732;28;20206;-64
2023/05/13 06:38:39;;;;;;;1.00;1.00;;;14.70;99.90;;;;;;5074797;28;20581;-63
2023/05/13 06:41:06;;;;;;;0.90;0.90;;;14.70;99.90;;;;;;5074581;28;20207;-62
2023/05/13 06:43:33;;;;;;;0.80;0.80;;;14.60;99.90;;;;;;5074815;28;20296;-62
2023/05/13 06:46:00;;;;;;;0.90;0.90;;;14.60;99.90;;;;;;5074709;28;20238;-62
2023/05/13 06:48:28;;;;;;;0.80;0.80;;;14.50;99.90;;;;;;5074368;28;20243;-63
2023/05/13 06:50:55;;;;;;;0.80;0.80;;;14.60;99.90;;;;;;5074782;28;20209;-63
2023/05/13 06:53:22;;;;;;;0.70;0.70;;;14.70;99.90;;;;;;5074353;28;20227;-62
2023/05/13 06:55:49;;;;;;;0.70;0.70;;;14.70;99.90;;;;;;5074831;28;20207;-62
2023/05/13 06:58:16;;;;;;;0.73;0.70;;;14.90;99.90;;;;;;5073976;28;20206;-63
2023/05/13 07:00:45;;;;;;;0.80;0.80;;;14.90;99.90;;;;;;5074679;28;20203;-62
2023/05/13 07:03:12;;;;;;;0.80;0.80;;;14.90;99.90;;;;;;5075276;28;20263;-62
2023/05/13 07:05:40;;;;;;;0.90;0.90;;;15.00;99.90;;;;;;5075938;28;20205;-62
2023/05/13 07:08:07;;;;;;;1.00;1.00;;;14.90;99.90;;;;;;5076348;28;20213;-62
2023/05/13 07:10:34;;;;;;;0.90;0.90;;;14.90;99.90;;;;;;5074901;28;20260;-62
2023/05/13 07:13:01;;;;;;;0.90;0.90;;;15.00;99.90;;;;;;5074261;28;20235;-62
2023/05/13 07:15:28;;;;;;;0.83;0.83;;;15.00;99.90;;;;;;5074243;28;20199;-63
2023/05/13 07:17:55;;;;;;;1.15;0.82;;;15.10;99.90;;;;;;5074457;28;20207;-63
2023/05/13 07:20:24;;;;;;;0.70;0.70;;;15.20;99.90;;;;;;5086471;28;20205;-63
2023/05/13 07:22:52;;;;;;;0.77;0.77;;;15.10;99.90;;;;;;5094720;28;20223;-63
2023/05/13 07:25:19;;;;;;;0.88;0.88;;;15.20;99.90;;;;;;5089866;28;20207;-63
2023/05/13 07:27:46;;;;;;;0.60;0.60;;;15.30;99.90;;;;;;5074482;28;20230;-62
2023/05/13 07:30:14;;;;;;;0.98;0.98;;;15.40;99.90;;;;;;5073171;28;20207;-63
2023/05/13 07:32:41;;;;;;;0.80;0.80;;;15.60;99.90;;;;;;5066299;28;20238;-61
2023/05/13 07:35:09;;;;;;;0.57;0.57;;;15.50;99.90;;;;;;5062125;28;20586;-64
2023/05/13 07:37:36;;;;;;;0.50;0.50;;;15.50;99.90;;;;;;5065595;28;20203;-62
2023/05/13 07:40:06;;;;;;;0.70;0.70;;;15.60;99.90;;;;;;5062597;28;20213;-62
2023/05/13 07:42:33;;;;;;;0.80;0.80;;;15.70;99.90;;;;;;5071475;28;20219;-62
2023/05/13 07:45:00;;;;;;;1.00;1.00;;;15.80;99.90;;;;;;5064873;28;20231;-62
2023/05/13 07:47:27;;;;;;;0.95;0.95;;;15.90;99.90;;;;;;5072622;28;20219;-63
2023/05/13 07:49:54;;;;;;;0.80;0.80;;;15.80;99.90;;;;;;5071817;28;20700;-62
2023/05/13 07:52:21;;;;;;;0.70;0.70;;;15.70;99.90;;;;;;5072179;28;20603;-62
2023/05/13 07:54:48;;;;;;;0.80;0.80;;;15.70;99.90;;;;;;5072419;28;20203;-63
2023/05/13 07:57:16;;;;;;;0.70;0.70;;;15.50;99.90;;;;;;5072738;28;20685;-63
2023/05/13 07:59:43;;;;;;;0.80;0.80;;;15.40;99.90;;;;;;5071633;28;20217;-63
2023/05/13 08:02:11;;;;;;;0.70;0.70;;;15.40;99.90;;;;;;5072332;28;20226;-62
2023/05/13 08:04:38;;;;;;;0.90;0.90;;;15.50;99.90;;;;;;5072565;28;20230;-61
2023/05/13 08:07:05;;;;;;;0.90;0.90;;;15.60;99.90;;;;;;5076986;28;20258;-61
2023/05/13 08:09:32;;;;;;;0.80;0.80;;;15.70;99.90;;;;;;5074562;28;20203;-60
2023/05/13 08:11:59;;;;;;;0.60;0.60;;;15.70;99.90;;;;;;5072187;28;20222;-61
2023/05/13 08:14:27;;;;;;;0.63;0.63;;;15.80;99.90;;;;;;5072363;28;20215;-62
2023/05/13 08:16:54;;;;;;;0.70;0.70;;;15.70;99.90;;;;;;5072246;28;20286;-61
2023/05/13 08:19:21;;;;;;;0.80;0.80;;;15.80;99.90;;;;;;5071699;28;20207;-61
2023/05/13 08:21:48;;;;;;;0.80;0.80;;;15.80;99.90;;;;;;5072045;28;20223;-62
2023/05/13 08:24:15;;;;;;;0.63;0.63;;;15.90;99.90;;;;;;5072104;28;20768;-61
2023/05/13 08:26:42;;;;;;;0.80;0.80;;;16.10;99.90;;;;;;5072443;28;20231;-62
2023/05/13 08:29:11;;;;;;;0.70;0.70;;;16.30;99.90;;;;;;5070932;28;20205;-62
2023/05/13 08:31:39;;;;;;;0.80;0.80;;;16.30;99.90;;;;;;5071626;28;20265;-62
2023/05/13 08:34:06;;;;;;;0.90;0.90;;;16.50;99.90;;;;;;5073394;28;20209;-63
2023/05/13 08:36:33;;;;;;;0.77;0.77;;;16.50;99.90;;;;;;5072944;28;20318;-62
2023/05/13 08:39:01;;;;;;;0.80;0.80;;;16.60;99.90;;;;;;5071933;28;20211;-62
2023/05/13 09:11:48;;;;;;;0.82;0.82;;;16.90;99.90;;;;;;5045170;28;20273;-62
2023/05/13 09:14:18;;;;;;;0.70;0.70;;;17.10;99.90;;;;;;5051213;28;20207;-62
2023/05/13 09:16:46;;;;;;;0.80;0.80;;;17.10;99.90;;;;;;5051872;28;20210;-62
2023/05/13 09:19:14;;;;;;;0.80;0.80;;;17.20;99.90;;;;;;5060543;28;20218;-67
2023/05/13 09:21:40;;;;;;;0.60;0.60;;;17.20;99.90;;;;;;5063774;28;20263;-61
2023/05/13 09:24:09;;;;;;;0.63;0.63;;;17.30;99.90;;;;;;5066548;28;20218;-64
2023/05/13 09:26:36;;;;;;;0.85;0.85;;;17.50;99.90;;;;;;5059696;28;20718;-62
2023/05/13 09:29:18;;;;;;;0.80;0.80;;;17.60;99.90;;;;;;5071311;28;20203;-60
2023/05/13 09:31:47;;;;;;;0.80;0.80;;;17.50;99.90;;;;;;5070063;28;20305;-64
2023/05/13 09:34:14;;;;;;;0.80;0.80;;;17.60;99.90;;;;;;5071285;28;20290;-62
2023/05/13 09:36:41;;;;;;;0.77;0.73;;;17.70;99.90;;;;;;5070570;28;20203;-63
2023/05/13 09:39:08;;;;;;;0.80;0.80;;;17.90;99.90;;;;;;5065066;28;20203;-62
2023/05/13 09:41:35;;;;;;;0.85;0.85;;;18.20;99.90;;;;;;5070770;28;20207;-62
2023/05/13 09:44:03;;;;;;;0.80;0.80;;;18.50;99.90;;;;;;5066793;28;20654;-62
2023/05/13 09:46:33;;;;;;;0.70;0.70;;;18.60;99.90;;;;;;5062073;28;20220;-62
2023/05/13 09:49:00;;;;;;;0.70;0.70;;;18.70;99.90;;;;;;5072257;28;20231;-62
2023/05/13 09:51:29;;;;;;;0.70;0.70;;;18.90;99.90;;;;;;5073144;28;20204;-62
2023/05/13 09:54:03;;;;;;;0.80;0.80;;;19.10;99.90;;;;;;5050501;28;20210;-62
2023/05/13 09:56:30;;;;;;;0.70;0.70;;;19.20;99.90;;;;;;5059305;28;20205;-61
2023/05/13 09:58:57;;;;;;;0.65;0.65;;;19.20;99.90;;;;;;5072094;28;20207;-61
2023/05/13 10:01:26;;;;;;;0.70;0.70;;;19.10;99.90;;;;;;5069532;28;20206;-64
2023/05/13 10:03:55;;;;;;;2.38;1.02;;;19.00;99.90;;;;;;5063360;28;20204;-63
2023/05/13 10:06:24;;;;;;;0.60;0.60;;;19.00;99.90;;;;;;5056762;28;20226;-62
2023/05/13 10:08:51;;;;;;;0.60;0.60;;;18.60;99.90;;;;;;5064402;28;20292;-62
2023/05/13 10:11:19;;;;;;;0.70;0.70;;;18.80;99.90;;;;;;5061830;28;20203;-62
2023/05/13 10:13:49;;;;;;;0.70;0.70;;;18.80;99.90;;;;;;5065638;28;20207;-62
2023/05/13 10:16:17;;;;;;;0.60;0.60;;;18.70;99.90;;;;;;5069798;28;20204;-63
2023/05/13 10:18:44;;;;;;;0.80;0.80;;;18.80;99.90;;;;;;5070057;28;20260;-63
2023/05/13 10:21:13;;;;;;;0.70;0.70;;;18.60;99.90;;;;;;5069320;28;20210;-64
2023/05/13 10:23:39;;;;;;;0.77;0.77;;;18.50;99.90;;;;;;5070372;28;20613;-63
2023/05/13 10:26:07;;;;;;;0.70;0.70;;;18.50;99.90;;;;;;5061488;28;20203;-62
2023/05/13 10:28:34;;;;;;;0.82;0.82;;;18.50;99.90;;;;;;5070957;28;20223;-61
2023/05/13 10:31:00;;;;;;;0.55;0.55;;;18.40;99.90;;;;;;5070543;28;20286;-62
2023/05/13 10:33:28;;;;;;;0.50;0.50;;;18.20;99.90;;;;;;5071475;28;20223;-61
2023/05/13 10:36:04;;;;;;;0.80;0.80;;;18.10;99.90;;;;;;5073839;28;20203;-61
2023/05/13 10:38:49;;;;;;;0.70;0.70;;;18.10;99.90;;;;;;5068610;28;20208;-62
2023/05/13 10:41:35;;;;;;;0.80;0.80;;;18.20;99.90;;;;;;5067926;28;20199;-62
2023/05/13 10:44:04;;;;;;;0.50;0.50;;;18.20;99.90;;;;;;5069071;28;20858;-63
2023/05/13 10:46:34;;;;;;;0.73;0.73;;;18.20;99.90;;;;;;5071762;28;20208;-62
2023/05/13 10:49:00;;;;;;;0.80;0.80;;;18.30;99.90;;;;;;5066031;28;20300;-63
2023/05/13 10:51:27;;;;;;;0.73;0.73;;;18.40;99.90;;;;;;5070398;28;20684;-61
2023/05/13 10:53:57;;;;;;;0.75;0.75;;;18.30;99.90;;;;;;5053568;28;20211;-63
2023/05/13 10:56:26;;;;;;;0.60;0.60;;;18.30;99.90;;;;;;5053976;28;20587;-62
2023/05/13 10:59:01;;;;;;;0.80;0.80;;;18.40;99.90;;;;;;5069100;28;20207;-62
2023/05/13 11:01:29;;;;;;;0.70;0.70;;;18.60;99.90;;;;;;5072875;28;20245;-63
2023/05/13 11:03:57;;;;;;;0.80;0.80;;;18.70;99.90;;;;;;5072889;28;20215;-65
2023/05/13 11:06:29;;;;;;;0.63;0.63;;;18.80;99.90;;;;;;5053093;28;20581;-63
2023/05/13 11:08:57;;;;;;;0.77;0.77;;;18.70;99.90;;;;;;5052978;28;20299;-62
2023/05/13 11:11:31;;;;;;;0.60;0.60;;;18.80;99.90;;;;;;5055735;28;20213;-62
2023/05/13 11:14:21;;;;;;;0.70;0.70;;;19.10;99.90;;;;;;5053564;28;20265;-61
2023/05/13 11:16:52;;;;;;;0.60;0.60;;;19.20;99.90;;;;;;5053120;28;20675;-63
2023/05/13 11:19:20;;;;;;;0.60;0.60;;;19.40;99.90;;;;;;5067958;28;20195;-64
2023/05/13 11:21:51;;;;;;;0.70;0.65;;;19.50;99.90;;;;;;5057324;28;20933;-64
2023/05/13 11:24:21;;;;;;;0.50;0.50;;;19.70;99.90;;;;;;5067654;28;20203;-62
2023/05/13 11:26:49;;;;;;;0.60;0.60;;;19.80;99.90;;;;;;5071392;28;20201;-62
2023/05/13 11:29:30;;;;;;;0.80;0.80;;;19.90;99.90;;;;;;5073746;28;20301;-64
2023/05/13 11:31:58;;;;;;;0.60;0.60;;;20.00;99.90;;;;;;5071280;28;20233;-62
2023/05/13 11:34:25;;;;;;;0.63;0.63;;;19.90;99.90;;;;;;5072498;28;20662;-63
2023/05/13 11:36:56;;;;;;;0.65;0.65;;;20.00;99.90;;;;;;5072748;28;20203;-62
2023/05/13 11:39:26;;;;;;;0.50;0.50;;;20.20;99.90;;;;;;5072212;28;20243;-63
2023/05/13 11:41:54;;;;;;;0.40;0.40;;;20.20;99.90;;;;;;5072663;28;20231;-62
2023/05/13 11:44:22;;;;;;;0.45;0.45;;;20.50;99.90;;;;;;5073269;28;20298;-63
2023/05/13 11:46:54;;;;;;;0.60;0.60;;;20.80;99.90;;;;;;5075191;28;20203;-63
2023/05/13 11:49:38;;;;;;;0.50;0.50;;;20.90;99.90;;;;;;5072187;28;20256;-63
2023/05/13 11:52:07;;;;;;;0.50;0.50;;;21.00;99.90;;;;;;5072462;28;20705;-64
2023/05/13 11:54:47;;;;;;;0.50;0.50;;;20.90;99.90;;;;;;5072587;28;20299;-63
2023/05/13 11:57:21;;;;;;;0.47;0.47;;;20.80;99.90;;;;;;5072463;28;20225;-64
2023/05/13 11:59:52;;;;;;;0.45;0.45;;;20.70;99.90;;;;;;5071790;28;20213;-64
2023/05/13 12:02:21;;;;;;;0.60;0.60;;;20.60;99.90;;;;;;5072620;28;20226;-65
2023/05/13 12:04:48;;;;;;;0.45;0.45;;;20.50;99.90;;;;;;5073580;28;20207;-64
2023/05/13 12:07:20;;;;;;;0.47;0.47;;;20.70;99.90;;;;;;5071391;28;20701;-63
2023/05/13 12:09:48;;;;;;;0.43;0.43;;;20.70;99.90;;;;;;5071602;28;20194;-63
2023/05/13 12:12:16;;;;;;;0.43;0.43;;;20.80;99.90;;;;;;5072683;28;20250;-63
2023/05/13 12:14:44;;;;;;;0.50;0.50;;;20.90;99.90;;;;;;5073210;28;20591;-63
2023/05/13 12:17:12;;;;;;;0.60;0.60;;;20.90;99.90;;;;;;5073017;28;20256;-63
2023/05/13 12:19:39;;;;;;;0.50;0.50;;;21.00;99.90;;;;;;5072792;28;20207;-66
2023/05/13 12:22:06;;;;;;;0.60;0.60;;;21.00;99.90;;;;;;5072572;28;20789;-64
2023/05/13 12:24:33;;;;;;;0.45;0.45;;;20.80;99.90;;;;;;5072865;28;20204;-65
2023/05/13 12:27:07;;;;;;;0.40;0.40;;;20.60;99.90;;;;;;5073078;28;20214;-65
2023/05/13 12:29:42;;;;;;;0.30;0.30;;;20.60;99.90;;;;;;5072700;28;20207;-65
2023/05/13 12:32:10;;;;;;;0.30;0.30;;;20.60;99.90;;;;;;5073044;28;20226;-65
2023/05/13 12:34:38;;;;;;;0.70;0.70;;;20.70;99.90;;;;;;5073046;28;20203;-65
2023/05/13 12:37:12;;;;;;;0.70;0.70;;;20.80;99.90;;;;;;5073472;28;20203;-65
2023/05/13 12:39:40;;;;;;;0.90;0.90;;;20.70;99.90;;;;;;5072791;28;20207;-65
2023/05/13 12:42:14;;;;;;;0.60;0.60;;;20.60;99.90;;;;;;5073768;28;20780;-66
2023/05/13 12:44:42;;;;;;;0.63;0.63;;;20.70;99.90;;;;;;5074052;28;20191;-65
2023/05/13 12:47:09;;;;;;;0.55;0.55;;;20.70;99.90;;;;;;5075455;28;20688;-63
2023/05/13 12:49:50;;;;;;;0.40;0.40;;;20.90;99.90;;;;;;5071943;28;20218;-62
2023/05/13 12:52:17;;;;;;;0.50;0.50;;;21.00;99.90;;;;;;5073426;28;20270;-63
2023/05/13 12:54:44;;;;;;;0.40;0.40;;;21.00;99.90;;;;;;5085578;28;20290;-62
2023/05/13 12:57:12;;;;;;;0.50;0.50;;;20.80;99.90;;;;;;5074609;28;20623;-64
2023/05/13 12:59:39;;;;;;;1.33;0.65;;;20.70;99.90;;;;;;5072635;28;20203;-63
2023/05/13 13:02:06;;;;;;;0.40;0.40;;;20.60;99.90;;;;;;5074618;28;20314;-63
2023/05/13 13:04:33;;;;;;;0.50;0.50;;;20.70;99.90;;;;;;5073630;28;20207;-64
2023/05/13 13:07:00;;;;;;;0.40;0.40;;;20.60;99.90;;;;;;5072134;28;20207;-64
2023/05/13 13:09:27;;;;;;;0.40;0.40;;;20.70;99.90;;;;;;5071016;28;20229;-64
2023/05/13 13:11:54;;;;;;;0.55;0.50;;;20.70;99.90;;;;;;5071386;28;20223;-62
2023/05/13 13:14:24;;;;;;;0.68;0.68;;;20.60;99.90;;;;;;5071421;28;20640;-64
2023/05/13 13:16:52;;;;;;;0.40;0.40;;;20.40;99.90;;;;;;5071483;28;20231;-64
2023/05/13 13:19:19;;;;;;;0.73;0.73;;;20.20;99.90;;;;;;5071380;28;20260;-65
2023/05/13 13:21:46;;;;;;;0.50;0.50;;;19.90;99.90;;;;;;5072150;28;20231;-62